sensor_id;sensor_type;location;lat;lon;timestamp;P1;durP1;ratioP1;P2;durP2;ratioP2
9783;SDS011;4931;44.874;-1.092;2022-12-18T00:01:16;74.00;;;29.98;;
9783;SDS011;4931;44.874;-1.092;2022-12-18T00:03:42;79.03;;;31.10;;
9783;SDS011;4931;44.874;-1.092;2022-12-18T00:06:08;71.22;;;29.35;;
9783;SDS011;4931;44.874;-1.092;2022-12-18T00:08:34;59.85;;;28.50;;
9783;SDS011;4931;44.874;-1.092;2022-12-18T00:11:06;53.40;;;22.70;;
9783;SDS011;4931;44.874;-1.092;2022-12-18T00:13:33;59.97;;;26.75;;
9783;SDS011;4931;44.874;-1.092;2022-12-18T00:16:03;47.00;;;20.02;;
9783;SDS011;4931;44.874;-1.092;2022-12-18T00:18:30;44.00;;;20.67;;
9783;SDS011;4931;44.874;-1.092;2022-12-18T00:20:59;67.68;;;36.03;;
9783;SDS011;4931;44.874;-1.092;2022-12-18T00:23:26;58.43;;;26.60;;
9783;SDS011;4931;44.874;-1.092;2022-12-18T00:25:52;45.28;;;21.10;;
9783;SDS011;4931;44.874;-1.092;2022-12-18T00:28:18;40.22;;;19.17;;
9783;SDS011;4931;44.874;-1.092;2022-12-18T00:30:43;39.00;;;18.48;;
9783;SDS011;4931;44.874;-1.092;2022-12-18T00:33:11;36.60;;;17.60;;
9783;SDS011;4931;44.874;-1.092;2022-12-18T00:35:37;38.88;;;16.50;;
9783;SDS011;4931;44.874;-1.092;2022-12-18T00:38:02;32.13;;;15.15;;
9783;SDS011;4931;44.874;-1.092;2022-12-18T00:40:28;64.63;;;22.58;;
9783;SDS011;4931;44.874;-1.092;2022-12-18T00:42:53;65.70;;;23.52;;
9783;SDS011;4931;44.874;-1.092;2022-12-18T00:45:24;94.20;;;32.67;;
9783;SDS011;4931;44.874;-1.092;2022-12-18T00:47:51;110.57;;;36.13;;
9783;SDS011;4931;44.874;-1.092;2022-12-18T00:50:16;81.85;;;29.30;;
9783;SDS011;4931;44.874;-1.092;2022-12-18T00:52:42;86.20;;;29.70;;
9783;SDS011;4931;44.874;-1.092;2022-12-18T00:55:08;83.93;;;30.60;;
9783;SDS011;4931;44.874;-1.092;2022-12-18T00:57:34;94.22;;;35.15;;
9783;SDS011;4931;44.874;-1.092;2022-12-18T00:59:59;85.05;;;30.52;;
9783;SDS011;4931;44.874;-1.092;2022-12-18T01:02:25;80.70;;;30.17;;
9783;SDS011;4931;44.874;-1.092;2022-12-18T01:04:50;85.38;;;31.50;;
9783;SDS011;4931;44.874;-1.092;2022-12-18T01:07:16;56.65;;;24.40;;
9783;SDS011;4931;44.874;-1.092;2022-12-18T01:09:41;66.05;;;27.05;;
9783;SDS011;4931;44.874;-1.092;2022-12-18T01:12:07;66.20;;;26.85;;
9783;SDS011;4931;44.874;-1.092;2022-12-18T01:14:32;76.15;;;29.52;;
9783;SDS011;4931;44.874;-1.092;2022-12-18T01:16:58;73.68;;;28.02;;
9783;SDS011;4931;44.874;-1.092;2022-12-18T01:19:23;61.97;;;23.92;;
9783;SDS011;4931;44.874;-1.092;2022-12-18T01:21:49;55.13;;;24.27;;
9783;SDS011;4931;44.874;-1.092;2022-12-18T01:24:14;46.25;;;23.65;;
9783;SDS011;4931;44.874;-1.092;2022-12-18T01:26:40;61.55;;;28.85;;
9783;SDS011;4931;44.874;-1.092;2022-12-18T01:29:06;58.70;;;26.60;;
9783;SDS011;4931;44.874;-1.092;2022-12-18T01:31:32;54.30;;;25.98;;
9783;SDS011;4931;44.874;-1.092;2022-12-18T01:34:00;56.03;;;28.13;;
9783;SDS011;4931;44.874;-1.092;2022-12-18T01:36:30;54.55;;;27.65;;
9783;SDS011;4931;44.874;-1.092;2022-12-18T01:38:59;46.78;;;23.48;;
9783;SDS011;4931;44.874;-1.092;2022-12-18T01:41:30;46.03;;;22.48;;
9783;SDS011;4931;44.874;-1.092;2022-12-18T01:47:41;35.85;;;19.23;;
9783;SDS011;4931;44.874;-1.092;2022-12-18T01:50:32;31.77;;;17.52;;
9783;SDS011;4931;44.874;-1.092;2022-12-18T01:53:06;36.40;;;18.08;;
9783;SDS011;4931;44.874;-1.092;2022-12-18T01:55:48;34.17;;;16.10;;
9783;SDS011;4931;44.874;-1.092;2022-12-18T01:58:17;32.22;;;15.13;;
9783;SDS011;4931;44.874;-1.092;2022-12-18T02:00:44;24.80;;;12.98;;
9783;SDS011;4931;44.874;-1.092;2022-12-18T02:03:10;25.27;;;13.98;;
9783;SDS011;4931;44.874;-1.092;2022-12-18T02:05:42;25.42;;;13.77;;
9783;SDS011;4931;44.874;-1.092;2022-12-18T02:13:30;25.00;;;12.73;;
9783;SDS011;4931;44.874;-1.092;2022-12-18T02:18:49;20.15;;;11.23;;
9783;SDS011;4931;44.874;-1.092;2022-12-18T02:26:50;19.73;;;10.53;;
9783;SDS011;4931;44.874;-1.092;2022-12-18T02:29:24;21.70;;;11.40;;
9783;SDS011;4931;44.874;-1.092;2022-12-18T02:31:56;20.08;;;11.13;;
9783;SDS011;4931;44.874;-1.092;2022-12-18T02:34:24;20.00;;;10.98;;
9783;SDS011;4931;44.874;-1.092;2022-12-18T02:36:53;24.08;;;12.52;;
9783;SDS011;4931;44.874;-1.092;2022-12-18T02:39:20;22.77;;;11.98;;
9783;SDS011;4931;44.874;-1.092;2022-12-18T02:41:48;22.02;;;11.40;;
9783;SDS011;4931;44.874;-1.092;2022-12-18T02:44:15;20.83;;;11.05;;
9783;SDS011;4931;44.874;-1.092;2022-12-18T02:46:41;22.10;;;11.07;;
9783;SDS011;4931;44.874;-1.092;2022-12-18T02:51:41;22.55;;;11.30;;
9783;SDS011;4931;44.874;-1.092;2022-12-18T02:57:28;22.30;;;11.70;;
9783;SDS011;4931;44.874;-1.092;2022-12-18T03:02:38;22.50;;;11.77;;
9783;SDS011;4931;44.874;-1.092;2022-12-18T03:05:18;22.15;;;11.52;;
9783;SDS011;4931;44.874;-1.092;2022-12-18T03:07:57;22.40;;;11.77;;
9783;SDS011;4931;44.874;-1.092;2022-12-18T03:10:28;30.80;;;14.77;;
9783;SDS011;4931;44.874;-1.092;2022-12-18T03:13:09;43.50;;;20.15;;
9783;SDS011;4931;44.874;-1.092;2022-12-18T03:15:44;43.97;;;21.65;;
9783;SDS011;4931;44.874;-1.092;2022-12-18T03:18:20;42.40;;;19.65;;
9783;SDS011;4931;44.874;-1.092;2022-12-18T03:20:50;31.10;;;16.15;;
9783;SDS011;4931;44.874;-1.092;2022-12-18T03:23:21;29.13;;;15.48;;
9783;SDS011;4931;44.874;-1.092;2022-12-18T03:25:51;22.95;;;11.60;;
9783;SDS011;4931;44.874;-1.092;2022-12-18T03:28:22;25.88;;;11.18;;
9783;SDS011;4931;44.874;-1.092;2022-12-18T03:30:49;20.05;;;11.13;;
9783;SDS011;4931;44.874;-1.092;2022-12-18T03:33:23;22.08;;;11.45;;
9783;SDS011;4931;44.874;-1.092;2022-12-18T03:36:09;20.00;;;10.98;;
9783;SDS011;4931;44.874;-1.092;2022-12-18T03:38:34;24.23;;;11.32;;
9783;SDS011;4931;44.874;-1.092;2022-12-18T03:46:33;20.35;;;11.18;;
9783;SDS011;4931;44.874;-1.092;2022-12-18T03:49:14;19.27;;;10.70;;
9783;SDS011;4931;44.874;-1.092;2022-12-18T03:54:42;20.48;;;10.40;;
9783;SDS011;4931;44.874;-1.092;2022-12-18T03:57:13;20.88;;;10.88;;
9783;SDS011;4931;44.874;-1.092;2022-12-18T03:59:42;20.65;;;10.52;;
9783;SDS011;4931;44.874;-1.092;2022-12-18T04:02:11;19.45;;;10.65;;
9783;SDS011;4931;44.874;-1.092;2022-12-18T04:04:37;17.70;;;10.13;;
9783;SDS011;4931;44.874;-1.092;2022-12-18T04:07:05;19.85;;;10.88;;
9783;SDS011;4931;44.874;-1.092;2022-12-18T04:09:32;20.42;;;11.23;;
9783;SDS011;4931;44.874;-1.092;2022-12-18T04:11:59;21.85;;;11.27;;
9783;SDS011;4931;44.874;-1.092;2022-12-18T04:14:24;20.70;;;11.98;;
9783;SDS011;4931;44.874;-1.092;2022-12-18T04:16:50;22.85;;;12.07;;
9783;SDS011;4931;44.874;-1.092;2022-12-18T04:19:16;23.08;;;11.93;;
9783;SDS011;4931;44.874;-1.092;2022-12-18T04:21:41;22.80;;;12.07;;
9783;SDS011;4931;44.874;-1.092;2022-12-18T04:24:07;21.35;;;11.02;;
9783;SDS011;4931;44.874;-1.092;2022-12-18T04:26:33;19.27;;;11.05;;
9783;SDS011;4931;44.874;-1.092;2022-12-18T04:28:59;18.95;;;10.73;;
9783;SDS011;4931;44.874;-1.092;2022-12-18T04:31:24;20.23;;;10.70;;
9783;SDS011;4931;44.874;-1.092;2022-12-18T04:33:50;21.17;;;11.00;;
9783;SDS011;4931;44.874;-1.092;2022-12-18T04:36:15;20.67;;;10.82;;
9783;SDS011;4931;44.874;-1.092;2022-12-18T04:38:41;20.50;;;11.02;;
9783;SDS011;4931;44.874;-1.092;2022-12-18T04:41:06;23.83;;;11.10;;
9783;SDS011;4931;44.874;-1.092;2022-12-18T04:43:32;20.30;;;10.95;;
9783;SDS011;4931;44.874;-1.092;2022-12-18T04:46:01;18.48;;;10.50;;
9783;SDS011;4931;44.874;-1.092;2022-12-18T04:48:31;20.77;;;11.00;;
9783;SDS011;4931;44.874;-1.092;2022-12-18T04:50:57;23.33;;;11.27;;
9783;SDS011;4931;44.874;-1.092;2022-12-18T04:53:22;18.75;;;10.52;;
9783;SDS011;4931;44.874;-1.092;2022-12-18T04:55:48;20.42;;;10.75;;
9783;SDS011;4931;44.874;-1.092;2022-12-18T04:58:13;24.85;;;12.27;;
9783;SDS011;4931;44.874;-1.092;2022-12-18T05:00:38;22.40;;;12.05;;
9783;SDS011;4931;44.874;-1.092;2022-12-18T05:03:04;21.85;;;11.70;;
9783;SDS011;4931;44.874;-1.092;2022-12-18T05:05:30;22.55;;;11.00;;
9783;SDS011;4931;44.874;-1.092;2022-12-18T05:07:55;19.58;;;10.38;;
9783;SDS011;4931;44.874;-1.092;2022-12-18T05:10:21;19.42;;;10.35;;
9783;SDS011;4931;44.874;-1.092;2022-12-18T05:12:46;19.88;;;11.02;;
9783;SDS011;4931;44.874;-1.092;2022-12-18T05:15:26;19.73;;;10.05;;
9783;SDS011;4931;44.874;-1.092;2022-12-18T05:17:52;21.58;;;11.43;;
9783;SDS011;4931;44.874;-1.092;2022-12-18T05:20:18;21.90;;;11.07;;
9783;SDS011;4931;44.874;-1.092;2022-12-18T05:22:44;22.95;;;11.82;;
9783;SDS011;4931;44.874;-1.092;2022-12-18T05:25:09;21.33;;;10.80;;
9783;SDS011;4931;44.874;-1.092;2022-12-18T05:27:35;20.92;;;10.07;;
9783;SDS011;4931;44.874;-1.092;2022-12-18T05:30:00;19.40;;;10.55;;
9783;SDS011;4931;44.874;-1.092;2022-12-18T05:32:26;21.35;;;10.80;;
9783;SDS011;4931;44.874;-1.092;2022-12-18T05:34:51;21.48;;;11.65;;
9783;SDS011;4931;44.874;-1.092;2022-12-18T05:37:16;23.65;;;11.77;;
9783;SDS011;4931;44.874;-1.092;2022-12-18T05:39:43;23.60;;;12.15;;
9783;SDS011;4931;44.874;-1.092;2022-12-18T05:42:08;35.08;;;14.48;;
9783;SDS011;4931;44.874;-1.092;2022-12-18T05:44:34;25.75;;;12.85;;
9783;SDS011;4931;44.874;-1.092;2022-12-18T05:47:00;26.08;;;12.60;;
9783;SDS011;4931;44.874;-1.092;2022-12-18T05:49:25;21.42;;;11.23;;
9783;SDS011;4931;44.874;-1.092;2022-12-18T05:51:51;20.83;;;11.18;;
9783;SDS011;4931;44.874;-1.092;2022-12-18T05:54:16;23.58;;;12.35;;
9783;SDS011;4931;44.874;-1.092;2022-12-18T05:56:42;21.63;;;11.45;;
9783;SDS011;4931;44.874;-1.092;2022-12-18T05:59:07;23.90;;;12.32;;
9783;SDS011;4931;44.874;-1.092;2022-12-18T06:01:33;21.70;;;11.80;;
9783;SDS011;4931;44.874;-1.092;2022-12-18T06:03:59;20.13;;;10.80;;
9783;SDS011;4931;44.874;-1.092;2022-12-18T06:06:26;22.98;;;11.45;;
9783;SDS011;4931;44.874;-1.092;2022-12-18T06:08:52;22.00;;;11.73;;
9783;SDS011;4931;44.874;-1.092;2022-12-18T06:11:19;20.33;;;10.82;;
9783;SDS011;4931;44.874;-1.092;2022-12-18T06:13:51;20.27;;;10.35;;
9783;SDS011;4931;44.874;-1.092;2022-12-18T06:16:21;19.83;;;10.45;;
9783;SDS011;4931;44.874;-1.092;2022-12-18T06:18:47;20.55;;;10.45;;
9783;SDS011;4931;44.874;-1.092;2022-12-18T06:21:12;16.48;;;10.55;;
9783;SDS011;4931;44.874;-1.092;2022-12-18T06:23:38;21.58;;;11.60;;
9783;SDS011;4931;44.874;-1.092;2022-12-18T06:26:04;19.73;;;12.05;;
9783;SDS011;4931;44.874;-1.092;2022-12-18T06:28:31;20.25;;;11.15;;
9783;SDS011;4931;44.874;-1.092;2022-12-18T06:30:57;23.17;;;10.85;;
9783;SDS011;4931;44.874;-1.092;2022-12-18T06:33:25;18.13;;;9.88;;
9783;SDS011;4931;44.874;-1.092;2022-12-18T06:35:52;20.48;;;10.02;;
9783;SDS011;4931;44.874;-1.092;2022-12-18T06:38:17;18.52;;;10.30;;
9783;SDS011;4931;44.874;-1.092;2022-12-18T06:40:43;17.60;;;9.50;;
9783;SDS011;4931;44.874;-1.092;2022-12-18T06:43:08;19.52;;;9.48;;
9783;SDS011;4931;44.874;-1.092;2022-12-18T06:45:34;18.17;;;9.50;;
9783;SDS011;4931;44.874;-1.092;2022-12-18T06:47:59;15.10;;;9.95;;
9783;SDS011;4931;44.874;-1.092;2022-12-18T06:50:25;17.08;;;9.27;;
9783;SDS011;4931;44.874;-1.092;2022-12-18T06:52:51;18.27;;;9.93;;
9783;SDS011;4931;44.874;-1.092;2022-12-18T06:55:16;16.55;;;9.55;;
9783;SDS011;4931;44.874;-1.092;2022-12-18T06:57:42;15.13;;;8.65;;
9783;SDS011;4931;44.874;-1.092;2022-12-18T07:00:08;15.82;;;8.98;;
9783;SDS011;4931;44.874;-1.092;2022-12-18T07:02:34;15.27;;;8.40;;
9783;SDS011;4931;44.874;-1.092;2022-12-18T07:05:00;15.45;;;8.48;;
9783;SDS011;4931;44.874;-1.092;2022-12-18T07:07:25;15.95;;;9.15;;
9783;SDS011;4931;44.874;-1.092;2022-12-18T07:09:51;18.60;;;9.20;;
9783;SDS011;4931;44.874;-1.092;2022-12-18T07:12:17;17.80;;;8.88;;
9783;SDS011;4931;44.874;-1.092;2022-12-18T07:14:42;15.05;;;8.38;;
9783;SDS011;4931;44.874;-1.092;2022-12-18T07:17:08;16.00;;;9.45;;
9783;SDS011;4931;44.874;-1.092;2022-12-18T07:19:33;15.00;;;8.63;;
9783;SDS011;4931;44.874;-1.092;2022-12-18T07:21:59;14.88;;;7.80;;
9783;SDS011;4931;44.874;-1.092;2022-12-18T07:24:25;14.43;;;8.98;;
9783;SDS011;4931;44.874;-1.092;2022-12-18T07:26:50;14.30;;;7.90;;
9783;SDS011;4931;44.874;-1.092;2022-12-18T07:29:16;14.93;;;8.43;;
9783;SDS011;4931;44.874;-1.092;2022-12-18T07:31:41;14.05;;;8.30;;
9783;SDS011;4931;44.874;-1.092;2022-12-18T07:34:10;18.00;;;10.32;;
9783;SDS011;4931;44.874;-1.092;2022-12-18T07:36:37;18.67;;;9.82;;
9783;SDS011;4931;44.874;-1.092;2022-12-18T07:39:03;15.75;;;9.35;;
9783;SDS011;4931;44.874;-1.092;2022-12-18T07:41:28;14.60;;;8.45;;
9783;SDS011;4931;44.874;-1.092;2022-12-18T07:43:54;15.88;;;8.05;;
9783;SDS011;4931;44.874;-1.092;2022-12-18T07:46:19;13.85;;;8.13;;
9783;SDS011;4931;44.874;-1.092;2022-12-18T07:48:45;14.88;;;7.95;;
9783;SDS011;4931;44.874;-1.092;2022-12-18T07:51:11;12.95;;;7.70;;
9783;SDS011;4931;44.874;-1.092;2022-12-18T07:53:36;13.23;;;7.60;;
9783;SDS011;4931;44.874;-1.092;2022-12-18T07:56:06;13.30;;;7.72;;
9783;SDS011;4931;44.874;-1.092;2022-12-18T07:58:34;13.23;;;7.65;;
9783;SDS011;4931;44.874;-1.092;2022-12-18T08:01:03;12.98;;;7.40;;
9783;SDS011;4931;44.874;-1.092;2022-12-18T08:03:33;13.43;;;7.47;;
9783;SDS011;4931;44.874;-1.092;2022-12-18T08:06:02;13.85;;;7.55;;
9783;SDS011;4931;44.874;-1.092;2022-12-18T08:08:29;11.25;;;6.68;;
9783;SDS011;4931;44.874;-1.092;2022-12-18T08:10:55;13.82;;;7.38;;
9783;SDS011;4931;44.874;-1.092;2022-12-18T08:13:20;12.55;;;7.38;;
9783;SDS011;4931;44.874;-1.092;2022-12-18T08:15:46;13.23;;;7.47;;
9783;SDS011;4931;44.874;-1.092;2022-12-18T08:18:20;13.48;;;7.95;;
9783;SDS011;4931;44.874;-1.092;2022-12-18T08:20:45;12.55;;;7.30;;
9783;SDS011;4931;44.874;-1.092;2022-12-18T08:23:10;12.18;;;6.90;;
9783;SDS011;4931;44.874;-1.092;2022-12-18T08:25:37;14.50;;;8.45;;
9783;SDS011;4931;44.874;-1.092;2022-12-18T08:28:03;12.30;;;7.60;;
9783;SDS011;4931;44.874;-1.092;2022-12-18T08:30:28;12.50;;;7.38;;
9783;SDS011;4931;44.874;-1.092;2022-12-18T08:32:54;14.52;;;8.63;;
9783;SDS011;4931;44.874;-1.092;2022-12-18T08:35:19;13.88;;;8.23;;
9783;SDS011;4931;44.874;-1.092;2022-12-18T08:37:45;13.85;;;8.80;;
9783;SDS011;4931;44.874;-1.092;2022-12-18T08:40:10;14.75;;;8.55;;
9783;SDS011;4931;44.874;-1.092;2022-12-18T08:42:36;14.77;;;8.75;;
9783;SDS011;4931;44.874;-1.092;2022-12-18T08:45:20;14.80;;;8.98;;
9783;SDS011;4931;44.874;-1.092;2022-12-18T08:47:45;14.70;;;8.18;;
9783;SDS011;4931;44.874;-1.092;2022-12-18T08:50:11;14.75;;;8.70;;
9783;SDS011;4931;44.874;-1.092;2022-12-18T08:52:37;13.75;;;8.18;;
9783;SDS011;4931;44.874;-1.092;2022-12-18T08:55:02;12.77;;;7.68;;
9783;SDS011;4931;44.874;-1.092;2022-12-18T08:57:28;13.27;;;7.90;;
9783;SDS011;4931;44.874;-1.092;2022-12-18T08:59:54;11.07;;;7.35;;
9783;SDS011;4931;44.874;-1.092;2022-12-18T09:02:19;13.68;;;7.50;;
9783;SDS011;4931;44.874;-1.092;2022-12-18T09:04:46;12.60;;;7.32;;
9783;SDS011;4931;44.874;-1.092;2022-12-18T09:07:12;16.00;;;10.15;;
9783;SDS011;4931;44.874;-1.092;2022-12-18T09:09:38;13.38;;;8.18;;
9783;SDS011;4931;44.874;-1.092;2022-12-18T09:12:03;17.08;;;10.65;;
9783;SDS011;4931;44.874;-1.092;2022-12-18T09:14:28;26.23;;;17.73;;
9783;SDS011;4931;44.874;-1.092;2022-12-18T09:16:54;24.15;;;16.80;;
9783;SDS011;4931;44.874;-1.092;2022-12-18T09:19:19;14.50;;;9.18;;
9783;SDS011;4931;44.874;-1.092;2022-12-18T09:21:45;34.25;;;25.70;;
9783;SDS011;4931;44.874;-1.092;2022-12-18T09:24:14;26.75;;;17.88;;
9783;SDS011;4931;44.874;-1.092;2022-12-18T09:26:40;28.75;;;19.20;;
9783;SDS011;4931;44.874;-1.092;2022-12-18T09:29:06;39.25;;;24.50;;
9783;SDS011;4931;44.874;-1.092;2022-12-18T09:31:32;106.95;;;67.53;;
9783;SDS011;4931;44.874;-1.092;2022-12-18T09:33:58;24.15;;;15.07;;
9783;SDS011;4931;44.874;-1.092;2022-12-18T09:36:23;25.75;;;18.30;;
9783;SDS011;4931;44.874;-1.092;2022-12-18T09:38:49;58.55;;;48.42;;
9783;SDS011;4931;44.874;-1.092;2022-12-18T09:43:49;28.02;;;23.15;;
9783;SDS011;4931;44.874;-1.092;2022-12-18T09:46:20;34.60;;;26.42;;
9783;SDS011;4931;44.874;-1.092;2022-12-18T09:48:52;37.55;;;26.42;;
9783;SDS011;4931;44.874;-1.092;2022-12-18T09:51:38;23.85;;;16.08;;
9783;SDS011;4931;44.874;-1.092;2022-12-18T09:54:14;45.67;;;29.98;;
9783;SDS011;4931;44.874;-1.092;2022-12-18T09:56:45;35.63;;;27.25;;
9783;SDS011;4931;44.874;-1.092;2022-12-18T09:59:18;26.27;;;21.98;;
9783;SDS011;4931;44.874;-1.092;2022-12-18T10:01:44;51.30;;;43.13;;
9783;SDS011;4931;44.874;-1.092;2022-12-18T10:04:10;21.60;;;17.08;;
9783;SDS011;4931;44.874;-1.092;2022-12-18T10:06:38;8.77;;;6.22;;
9783;SDS011;4931;44.874;-1.092;2022-12-18T10:18:29;18.85;;;13.20;;
9783;SDS011;4931;44.874;-1.092;2022-12-18T10:21:09;32.80;;;24.98;;
9783;SDS011;4931;44.874;-1.092;2022-12-18T10:23:54;11.50;;;9.93;;
9783;SDS011;4931;44.874;-1.092;2022-12-18T10:26:41;39.70;;;34.22;;
9783;SDS011;4931;44.874;-1.092;2022-12-18T10:29:11;43.75;;;37.35;;
9783;SDS011;4931;44.874;-1.092;2022-12-18T10:31:38;12.75;;;11.02;;
9783;SDS011;4931;44.874;-1.092;2022-12-18T10:34:04;17.38;;;13.63;;
9783;SDS011;4931;44.874;-1.092;2022-12-18T10:36:29;21.98;;;17.90;;
9783;SDS011;4931;44.874;-1.092;2022-12-18T10:39:06;14.98;;;10.15;;
9783;SDS011;4931;44.874;-1.092;2022-12-18T10:41:40;70.95;;;53.58;;
9783;SDS011;4931;44.874;-1.092;2022-12-18T10:44:14;36.70;;;27.10;;
9783;SDS011;4931;44.874;-1.092;2022-12-18T10:46:46;32.25;;;23.33;;
9783;SDS011;4931;44.874;-1.092;2022-12-18T10:49:21;24.77;;;16.08;;
9783;SDS011;4931;44.874;-1.092;2022-12-18T10:52:04;45.97;;;35.30;;
9783;SDS011;4931;44.874;-1.092;2022-12-18T10:54:40;10.82;;;8.27;;
9783;SDS011;4931;44.874;-1.092;2022-12-18T10:57:15;42.80;;;33.10;;
9783;SDS011;4931;44.874;-1.092;2022-12-18T10:59:51;33.60;;;23.70;;
9783;SDS011;4931;44.874;-1.092;2022-12-18T11:02:25;34.15;;;29.08;;
9783;SDS011;4931;44.874;-1.092;2022-12-18T11:05:02;41.10;;;34.75;;
9783;SDS011;4931;44.874;-1.092;2022-12-18T11:07:48;19.13;;;14.45;;
9783;SDS011;4931;44.874;-1.092;2022-12-18T11:10:20;36.22;;;30.42;;
9783;SDS011;4931;44.874;-1.092;2022-12-18T11:12:47;5.10;;;4.05;;
9783;SDS011;4931;44.874;-1.092;2022-12-18T11:15:19;14.40;;;9.98;;
9783;SDS011;4931;44.874;-1.092;2022-12-18T11:17:52;45.15;;;29.80;;
9783;SDS011;4931;44.874;-1.092;2022-12-18T11:20:31;6.82;;;4.85;;
9783;SDS011;4931;44.874;-1.092;2022-12-18T11:25:35;7.13;;;4.00;;
9783;SDS011;4931;44.874;-1.092;2022-12-18T11:28:03;18.05;;;13.50;;
9783;SDS011;4931;44.874;-1.092;2022-12-18T11:30:34;4.30;;;3.35;;
9783;SDS011;4931;44.874;-1.092;2022-12-18T11:35:34;4.27;;;2.83;;
9783;SDS011;4931;44.874;-1.092;2022-12-18T11:38:37;4.20;;;3.50;;
9783;SDS011;4931;44.874;-1.092;2022-12-18T11:43:55;4.25;;;3.78;;
9783;SDS011;4931;44.874;-1.092;2022-12-18T11:46:27;6.72;;;5.80;;
9783;SDS011;4931;44.874;-1.092;2022-12-18T11:48:59;4.30;;;2.85;;
9783;SDS011;4931;44.874;-1.092;2022-12-18T11:51:36;3.65;;;2.50;;
9783;SDS011;4931;44.874;-1.092;2022-12-18T11:54:14;3.80;;;2.80;;
9783;SDS011;4931;44.874;-1.092;2022-12-18T11:56:46;14.48;;;9.57;;
9783;SDS011;4931;44.874;-1.092;2022-12-18T12:01:50;2.40;;;1.70;;
9783;SDS011;4931;44.874;-1.092;2022-12-18T12:13:04;4.78;;;2.90;;
9783;SDS011;4931;44.874;-1.092;2022-12-18T12:25:57;3.37;;;2.20;;
9783;SDS011;4931;44.874;-1.092;2022-12-18T12:39:50;2.65;;;1.88;;
9783;SDS011;4931;44.874;-1.092;2022-12-18T12:45:38;3.58;;;1.95;;
9783;SDS011;4931;44.874;-1.092;2022-12-18T12:48:17;2.00;;;1.42;;
9783;SDS011;4931;44.874;-1.092;2022-12-18T12:50:49;2.70;;;1.80;;
9783;SDS011;4931;44.874;-1.092;2022-12-18T12:53:20;4.15;;;3.75;;
9783;SDS011;4931;44.874;-1.092;2022-12-18T12:55:51;1.88;;;1.55;;
9783;SDS011;4931;44.874;-1.092;2022-12-18T13:04:02;9.15;;;5.93;;
9783;SDS011;4931;44.874;-1.092;2022-12-18T13:06:53;4.05;;;2.40;;
9783;SDS011;4931;44.874;-1.092;2022-12-18T13:09:33;3.15;;;1.70;;
9783;SDS011;4931;44.874;-1.092;2022-12-18T13:12:18;4.18;;;2.50;;
9783;SDS011;4931;44.874;-1.092;2022-12-18T13:15:11;4.72;;;3.50;;
9783;SDS011;4931;44.874;-1.092;2022-12-18T13:17:45;3.42;;;2.38;;
9783;SDS011;4931;44.874;-1.092;2022-12-18T13:20:11;5.63;;;2.90;;
9783;SDS011;4931;44.874;-1.092;2022-12-18T13:22:45;3.55;;;2.80;;
9783;SDS011;4931;44.874;-1.092;2022-12-18T13:28:16;5.40;;;1.95;;
9783;SDS011;4931;44.874;-1.092;2022-12-18T13:30:52;6.40;;;3.10;;
9783;SDS011;4931;44.874;-1.092;2022-12-18T13:36:13;14.45;;;6.85;;
9783;SDS011;4931;44.874;-1.092;2022-12-18T13:38:40;5.93;;;4.07;;
9783;SDS011;4931;44.874;-1.092;2022-12-18T13:43:42;3.45;;;2.20;;
9783;SDS011;4931;44.874;-1.092;2022-12-18T13:48:52;2.50;;;1.90;;
9783;SDS011;4931;44.874;-1.092;2022-12-18T13:51:23;4.03;;;2.92;;
9783;SDS011;4931;44.874;-1.092;2022-12-18T13:56:20;3.05;;;2.00;;
9783;SDS011;4931;44.874;-1.092;2022-12-18T14:01:59;3.70;;;1.73;;
9783;SDS011;4931;44.874;-1.092;2022-12-18T14:04:34;3.30;;;2.00;;
9783;SDS011;4931;44.874;-1.092;2022-12-18T14:07:19;2.67;;;1.90;;
9783;SDS011;4931;44.874;-1.092;2022-12-18T14:09:52;2.78;;;1.83;;
9783;SDS011;4931;44.874;-1.092;2022-12-18T14:12:24;3.78;;;1.83;;
9783;SDS011;4931;44.874;-1.092;2022-12-18T14:17:54;4.35;;;2.03;;
9783;SDS011;4931;44.874;-1.092;2022-12-18T14:20:22;4.25;;;2.15;;
9783;SDS011;4931;44.874;-1.092;2022-12-18T14:22:49;4.15;;;2.50;;
9783;SDS011;4931;44.874;-1.092;2022-12-18T14:25:17;4.18;;;2.50;;
9783;SDS011;4931;44.874;-1.092;2022-12-18T14:27:49;6.75;;;3.67;;
9783;SDS011;4931;44.874;-1.092;2022-12-18T14:30:24;5.68;;;2.65;;
9783;SDS011;4931;44.874;-1.092;2022-12-18T14:33:08;4.72;;;2.30;;
9783;SDS011;4931;44.874;-1.092;2022-12-18T14:38:38;4.70;;;2.10;;
9783;SDS011;4931;44.874;-1.092;2022-12-18T14:40:58;4.20;;;2.10;;
9783;SDS011;4931;44.874;-1.092;2022-12-18T14:43:26;6.28;;;3.47;;
9783;SDS011;4931;44.874;-1.092;2022-12-18T14:45:52;8.98;;;4.38;;
9783;SDS011;4931;44.874;-1.092;2022-12-18T14:48:23;6.25;;;2.65;;
9783;SDS011;4931;44.874;-1.092;2022-12-18T14:53:36;5.65;;;3.33;;
9783;SDS011;4931;44.874;-1.092;2022-12-18T14:56:11;6.60;;;3.25;;
9783;SDS011;4931;44.874;-1.092;2022-12-18T14:58:44;5.85;;;3.00;;
9783;SDS011;4931;44.874;-1.092;2022-12-18T15:01:17;6.32;;;3.20;;
9783;SDS011;4931;44.874;-1.092;2022-12-18T15:03:49;3.58;;;2.28;;
9783;SDS011;4931;44.874;-1.092;2022-12-18T15:06:24;3.78;;;2.42;;
9783;SDS011;4931;44.874;-1.092;2022-12-18T15:08:52;3.13;;;2.10;;
9783;SDS011;4931;44.874;-1.092;2022-12-18T15:29:24;4.38;;;2.50;;
9783;SDS011;4931;44.874;-1.092;2022-12-18T15:32:17;3.58;;;2.55;;
9783;SDS011;4931;44.874;-1.092;2022-12-18T15:40:38;3.25;;;2.10;;
9783;SDS011;4931;44.874;-1.092;2022-12-18T15:43:22;4.05;;;2.63;;
9783;SDS011;4931;44.874;-1.092;2022-12-18T15:46:21;3.22;;;2.13;;
9783;SDS011;4931;44.874;-1.092;2022-12-18T15:49:07;4.00;;;2.50;;
9783;SDS011;4931;44.874;-1.092;2022-12-18T15:51:33;4.22;;;2.20;;
9783;SDS011;4931;44.874;-1.092;2022-12-18T15:54:03;3.83;;;2.15;;
9783;SDS011;4931;44.874;-1.092;2022-12-18T15:56:34;3.50;;;2.42;;
9783;SDS011;4931;44.874;-1.092;2022-12-18T15:59:18;7.20;;;3.40;;
9783;SDS011;4931;44.874;-1.092;2022-12-18T16:01:45;10.18;;;5.45;;
9783;SDS011;4931;44.874;-1.092;2022-12-18T16:04:14;17.00;;;8.68;;
9783;SDS011;4931;44.874;-1.092;2022-12-18T16:06:42;5.63;;;3.20;;
9783;SDS011;4931;44.874;-1.092;2022-12-18T16:09:08;5.70;;;3.50;;
9783;SDS011;4931;44.874;-1.092;2022-12-18T16:11:34;7.38;;;4.28;;
9783;SDS011;4931;44.874;-1.092;2022-12-18T16:16:31;6.05;;;3.50;;
9783;SDS011;4931;44.874;-1.092;2022-12-18T16:18:57;9.43;;;4.43;;
9783;SDS011;4931;44.874;-1.092;2022-12-18T16:21:22;7.43;;;3.97;;
9783;SDS011;4931;44.874;-1.092;2022-12-18T16:23:48;7.78;;;4.30;;
9783;SDS011;4931;44.874;-1.092;2022-12-18T16:26:13;6.72;;;4.65;;
9783;SDS011;4931;44.874;-1.092;2022-12-18T16:28:39;6.72;;;4.78;;
9783;SDS011;4931;44.874;-1.092;2022-12-18T16:31:04;7.63;;;4.88;;
9783;SDS011;4931;44.874;-1.092;2022-12-18T16:33:30;16.85;;;9.95;;
9783;SDS011;4931;44.874;-1.092;2022-12-18T16:35:55;15.80;;;9.68;;
9783;SDS011;4931;44.874;-1.092;2022-12-18T16:38:21;16.17;;;8.43;;
9783;SDS011;4931;44.874;-1.092;2022-12-18T16:40:46;23.73;;;12.15;;
9783;SDS011;4931;44.874;-1.092;2022-12-18T16:43:30;16.75;;;9.38;;
9783;SDS011;4931;44.874;-1.092;2022-12-18T16:45:57;13.70;;;6.68;;
9783;SDS011;4931;44.874;-1.092;2022-12-18T16:48:23;14.13;;;7.47;;
9783;SDS011;4931;44.874;-1.092;2022-12-18T16:50:49;9.10;;;5.53;;
9783;SDS011;4931;44.874;-1.092;2022-12-18T16:53:14;10.05;;;4.70;;
9783;SDS011;4931;44.874;-1.092;2022-12-18T16:55:40;11.82;;;5.38;;
9783;SDS011;4931;44.874;-1.092;2022-12-18T16:58:05;8.02;;;4.30;;
9783;SDS011;4931;44.874;-1.092;2022-12-18T17:00:30;9.25;;;5.22;;
9783;SDS011;4931;44.874;-1.092;2022-12-18T17:02:56;7.95;;;5.07;;
9783;SDS011;4931;44.874;-1.092;2022-12-18T17:05:21;8.18;;;4.47;;
9783;SDS011;4931;44.874;-1.092;2022-12-18T17:07:47;7.97;;;4.72;;
9783;SDS011;4931;44.874;-1.092;2022-12-18T17:10:12;5.85;;;3.72;;
9783;SDS011;4931;44.874;-1.092;2022-12-18T17:12:38;6.47;;;4.10;;
9783;SDS011;4931;44.874;-1.092;2022-12-18T17:15:03;6.97;;;4.38;;
9783;SDS011;4931;44.874;-1.092;2022-12-18T17:17:29;7.93;;;4.00;;
9783;SDS011;4931;44.874;-1.092;2022-12-18T17:19:55;9.70;;;4.30;;
9783;SDS011;4931;44.874;-1.092;2022-12-18T17:22:20;7.55;;;3.92;;